sensor_id;sensor_type;location;lat;lon;timestamp;P1;durP1;ratioP1;P2;durP2;ratioP2
69386;SDS011;56575;48.942;8.404;2023-02-23T00:00:51;41.75;;;18.55;;
69386;SDS011;56575;48.942;8.404;2023-02-23T00:03:17;41.17;;;19.33;;
69386;SDS011;56575;48.942;8.404;2023-02-23T00:05:42;44.23;;;20.10;;
69386;SDS011;56575;48.942;8.404;2023-02-23T00:08:07;42.90;;;20.10;;
69386;SDS011;56575;48.942;8.404;2023-02-23T00:10:33;44.67;;;19.07;;
69386;SDS011;56575;48.942;8.404;2023-02-23T00:12:58;42.90;;;20.50;;
69386;SDS011;56575;48.942;8.404;2023-02-23T00:15:27;48.27;;;20.10;;
69386;SDS011;56575;48.942;8.404;2023-02-23T00:17:54;44.53;;;20.10;;
69386;SDS011;56575;48.942;8.404;2023-02-23T00:20:19;44.28;;;18.77;;
69386;SDS011;56575;48.942;8.404;2023-02-23T00:22:53;39.92;;;18.63;;
69386;SDS011;56575;48.942;8.404;2023-02-23T00:25:19;41.92;;;19.42;;
69386;SDS011;56575;48.942;8.404;2023-02-23T00:27:44;41.23;;;19.50;;
69386;SDS011;56575;48.942;8.404;2023-02-23T00:30:14;33.00;;;17.20;;
69386;SDS011;56575;48.942;8.404;2023-02-23T00:32:38;38.25;;;18.48;;
69386;SDS011;56575;48.942;8.404;2023-02-23T00:35:04;37.10;;;18.77;;
69386;SDS011;56575;48.942;8.404;2023-02-23T00:37:35;35.50;;;18.25;;
69386;SDS011;56575;48.942;8.404;2023-02-23T00:40:02;37.50;;;17.73;;
69386;SDS011;56575;48.942;8.404;2023-02-23T00:42:29;40.63;;;19.50;;
69386;SDS011;56575;48.942;8.404;2023-02-23T00:44:56;41.40;;;19.27;;
69386;SDS011;56575;48.942;8.404;2023-02-23T00:47:21;41.63;;;19.03;;
69386;SDS011;56575;48.942;8.404;2023-02-23T00:49:46;34.00;;;17.07;;
69386;SDS011;56575;48.942;8.404;2023-02-23T00:52:11;33.07;;;17.17;;
69386;SDS011;56575;48.942;8.404;2023-02-23T00:54:38;35.97;;;17.00;;
69386;SDS011;56575;48.942;8.404;2023-02-23T00:57:03;36.23;;;17.50;;
69386;SDS011;56575;48.942;8.404;2023-02-23T00:59:29;36.60;;;17.73;;
69386;SDS011;56575;48.942;8.404;2023-02-23T01:01:54;40.90;;;18.47;;
69386;SDS011;56575;48.942;8.404;2023-02-23T01:04:20;38.37;;;17.57;;
69386;SDS011;56575;48.942;8.404;2023-02-23T01:06:47;35.37;;;17.90;;
69386;SDS011;56575;48.942;8.404;2023-02-23T01:09:13;33.03;;;16.70;;
69386;SDS011;56575;48.942;8.404;2023-02-23T01:11:40;35.07;;;17.50;;
69386;SDS011;56575;48.942;8.404;2023-02-23T01:14:06;34.42;;;16.95;;
69386;SDS011;56575;48.942;8.404;2023-02-23T01:16:32;35.10;;;16.50;;
69386;SDS011;56575;48.942;8.404;2023-02-23T01:18:58;35.37;;;16.53;;
69386;SDS011;56575;48.942;8.404;2023-02-23T01:21:24;36.58;;;17.80;;
69386;SDS011;56575;48.942;8.404;2023-02-23T01:23:50;37.50;;;17.70;;
69386;SDS011;56575;48.942;8.404;2023-02-23T01:26:22;40.17;;;17.85;;
69386;SDS011;56575;48.942;8.404;2023-02-23T01:28:57;41.95;;;18.23;;
69386;SDS011;56575;48.942;8.404;2023-02-23T01:31:25;38.37;;;17.97;;
69386;SDS011;56575;48.942;8.404;2023-02-23T01:33:53;39.85;;;18.27;;
69386;SDS011;56575;48.942;8.404;2023-02-23T01:36:19;33.85;;;16.02;;
69386;SDS011;56575;48.942;8.404;2023-02-23T01:38:44;36.50;;;16.67;;
69386;SDS011;56575;48.942;8.404;2023-02-23T01:41:09;35.80;;;17.17;;
69386;SDS011;56575;48.942;8.404;2023-02-23T01:43:34;37.50;;;17.37;;
69386;SDS011;56575;48.942;8.404;2023-02-23T01:46:01;38.08;;;17.67;;
69386;SDS011;56575;48.942;8.404;2023-02-23T01:48:30;39.97;;;17.23;;
69386;SDS011;56575;48.942;8.404;2023-02-23T01:53:33;35.70;;;17.00;;
69386;SDS011;56575;48.942;8.404;2023-02-23T01:56:06;34.42;;;16.70;;
69386;SDS011;56575;48.942;8.404;2023-02-23T01:58:35;34.07;;;16.33;;
69386;SDS011;56575;48.942;8.404;2023-02-23T02:01:02;36.13;;;16.42;;
69386;SDS011;56575;48.942;8.404;2023-02-23T02:03:32;32.47;;;16.47;;
69386;SDS011;56575;48.942;8.404;2023-02-23T02:05:59;35.20;;;16.95;;
69386;SDS011;56575;48.942;8.404;2023-02-23T02:08:25;35.13;;;17.58;;
69386;SDS011;56575;48.942;8.404;2023-02-23T02:10:51;39.93;;;18.60;;
69386;SDS011;56575;48.942;8.404;2023-02-23T02:13:21;44.35;;;20.52;;
69386;SDS011;56575;48.942;8.404;2023-02-23T02:28:51;36.28;;;17.17;;
69386;SDS011;56575;48.942;8.404;2023-02-23T02:46:54;38.95;;;18.38;;
69386;SDS011;56575;48.942;8.404;2023-02-23T02:49:24;41.67;;;18.47;;
69386;SDS011;56575;48.942;8.404;2023-02-23T02:54:23;42.78;;;18.25;;
69386;SDS011;56575;48.942;8.404;2023-02-23T02:56:50;43.00;;;18.75;;
69386;SDS011;56575;48.942;8.404;2023-02-23T02:59:17;42.45;;;18.65;;
69386;SDS011;56575;48.942;8.404;2023-02-23T03:02:02;42.33;;;18.43;;
69386;SDS011;56575;48.942;8.404;2023-02-23T03:04:46;38.95;;;18.10;;
69386;SDS011;56575;48.942;8.404;2023-02-23T03:07:39;44.95;;;19.70;;
69386;SDS011;56575;48.942;8.404;2023-02-23T03:13:23;48.72;;;19.95;;
69386;SDS011;56575;48.942;8.404;2023-02-23T03:16:26;48.20;;;21.50;;
69386;SDS011;56575;48.942;8.404;2023-02-23T03:19:15;49.75;;;21.70;;
69386;SDS011;56575;48.942;8.404;2023-02-23T03:24:56;43.00;;;20.60;;
69386;SDS011;56575;48.942;8.404;2023-02-23T03:30:28;43.90;;;19.90;;
69386;SDS011;56575;48.942;8.404;2023-02-23T03:33:15;46.72;;;21.45;;
69386;SDS011;56575;48.942;8.404;2023-02-23T03:36:02;52.58;;;21.80;;
69386;SDS011;56575;48.942;8.404;2023-02-23T03:39:10;44.35;;;21.50;;
69386;SDS011;56575;48.942;8.404;2023-02-23T03:41:56;47.65;;;21.17;;
69386;SDS011;56575;48.942;8.404;2023-02-23T03:44:41;49.53;;;21.17;;
69386;SDS011;56575;48.942;8.404;2023-02-23T03:47:26;48.78;;;21.40;;
69386;SDS011;56575;48.942;8.404;2023-02-23T03:50:20;46.10;;;21.95;;
69386;SDS011;56575;48.942;8.404;2023-02-23T03:53:05;42.17;;;19.90;;
69386;SDS011;56575;48.942;8.404;2023-02-23T03:55:51;45.13;;;19.73;;
69386;SDS011;56575;48.942;8.404;2023-02-23T03:58:38;47.87;;;19.40;;
69386;SDS011;56575;48.942;8.404;2023-02-23T04:01:23;43.20;;;19.83;;
69386;SDS011;56575;48.942;8.404;2023-02-23T04:04:08;43.15;;;20.08;;
69386;SDS011;56575;48.942;8.404;2023-02-23T04:06:52;41.00;;;19.65;;
69386;SDS011;56575;48.942;8.404;2023-02-23T04:09:37;48.83;;;21.58;;
69386;SDS011;56575;48.942;8.404;2023-02-23T04:15:26;42.70;;;19.60;;
69386;SDS011;56575;48.942;8.404;2023-02-23T04:17:51;42.35;;;20.90;;
69386;SDS011;56575;48.942;8.404;2023-02-23T04:20:17;44.93;;;19.23;;
69386;SDS011;56575;48.942;8.404;2023-02-23T04:22:42;38.30;;;19.53;;
69386;SDS011;56575;48.942;8.404;2023-02-23T04:25:07;37.33;;;18.43;;
69386;SDS011;56575;48.942;8.404;2023-02-23T04:27:34;42.75;;;20.45;;
69386;SDS011;56575;48.942;8.404;2023-02-23T04:29:59;38.67;;;19.23;;
69386;SDS011;56575;48.942;8.404;2023-02-23T04:32:27;35.53;;;18.17;;
69386;SDS011;56575;48.942;8.404;2023-02-23T04:34:53;40.23;;;19.47;;
69386;SDS011;56575;48.942;8.404;2023-02-23T04:37:18;42.53;;;19.00;;
69386;SDS011;56575;48.942;8.404;2023-02-23T04:39:44;35.50;;;18.40;;
69386;SDS011;56575;48.942;8.404;2023-02-23T04:42:13;37.10;;;18.00;;
69386;SDS011;56575;48.942;8.404;2023-02-23T04:44:39;40.97;;;18.33;;
69386;SDS011;56575;48.942;8.404;2023-02-23T04:47:04;38.23;;;18.73;;
69386;SDS011;56575;48.942;8.404;2023-02-23T04:49:30;39.83;;;20.55;;
69386;SDS011;56575;48.942;8.404;2023-02-23T04:51:55;38.93;;;19.03;;
69386;SDS011;56575;48.942;8.404;2023-02-23T04:54:20;37.67;;;18.37;;
69386;SDS011;56575;48.942;8.404;2023-02-23T04:56:45;40.73;;;18.83;;
69386;SDS011;56575;48.942;8.404;2023-02-23T04:59:10;38.53;;;18.67;;
69386;SDS011;56575;48.942;8.404;2023-02-23T05:01:36;38.07;;;17.87;;
69386;SDS011;56575;48.942;8.404;2023-02-23T05:04:01;36.27;;;16.83;;
69386;SDS011;56575;48.942;8.404;2023-02-23T05:06:26;37.60;;;17.00;;
69386;SDS011;56575;48.942;8.404;2023-02-23T05:08:52;35.23;;;16.47;;
69386;SDS011;56575;48.942;8.404;2023-02-23T05:11:17;36.03;;;18.27;;
69386;SDS011;56575;48.942;8.404;2023-02-23T05:13:42;35.20;;;16.93;;
69386;SDS011;56575;48.942;8.404;2023-02-23T05:16:07;34.13;;;16.37;;
69386;SDS011;56575;48.942;8.404;2023-02-23T05:18:33;35.60;;;17.23;;
69386;SDS011;56575;48.942;8.404;2023-02-23T05:21:05;31.02;;;16.50;;
69386;SDS011;56575;48.942;8.404;2023-02-23T05:23:31;32.78;;;15.55;;
69386;SDS011;56575;48.942;8.404;2023-02-23T05:26:01;34.97;;;16.50;;
69386;SDS011;56575;48.942;8.404;2023-02-23T05:28:28;31.48;;;15.70;;
69386;SDS011;56575;48.942;8.404;2023-02-23T05:30:53;35.37;;;16.17;;
69386;SDS011;56575;48.942;8.404;2023-02-23T05:33:18;34.80;;;16.23;;
69386;SDS011;56575;48.942;8.404;2023-02-23T05:35:45;31.73;;;15.38;;
69386;SDS011;56575;48.942;8.404;2023-02-23T05:38:11;33.47;;;16.43;;
69386;SDS011;56575;48.942;8.404;2023-02-23T05:40:36;32.83;;;16.00;;
69386;SDS011;56575;48.942;8.404;2023-02-23T05:43:01;32.40;;;16.33;;
69386;SDS011;56575;48.942;8.404;2023-02-23T05:45:27;32.83;;;16.30;;
69386;SDS011;56575;48.942;8.404;2023-02-23T05:47:52;38.00;;;22.47;;
69386;SDS011;56575;48.942;8.404;2023-02-23T05:50:17;34.37;;;16.90;;
69386;SDS011;56575;48.942;8.404;2023-02-23T05:52:42;31.57;;;16.27;;
69386;SDS011;56575;48.942;8.404;2023-02-23T05:55:08;38.20;;;21.57;;
69386;SDS011;56575;48.942;8.404;2023-02-23T05:57:34;34.40;;;21.92;;
69386;SDS011;56575;48.942;8.404;2023-02-23T05:59:59;36.60;;;21.53;;
69386;SDS011;56575;48.942;8.404;2023-02-23T06:02:25;31.43;;;17.57;;
69386;SDS011;56575;48.942;8.404;2023-02-23T06:04:50;28.70;;;15.33;;
69386;SDS011;56575;48.942;8.404;2023-02-23T06:07:15;32.70;;;15.53;;
69386;SDS011;56575;48.942;8.404;2023-02-23T06:09:40;28.60;;;14.97;;
69386;SDS011;56575;48.942;8.404;2023-02-23T06:12:06;29.13;;;18.00;;
69386;SDS011;56575;48.942;8.404;2023-02-23T06:14:31;32.13;;;19.63;;
69386;SDS011;56575;48.942;8.404;2023-02-23T06:16:57;34.50;;;18.77;;
69386;SDS011;56575;48.942;8.404;2023-02-23T06:19:24;32.50;;;17.60;;
69386;SDS011;56575;48.942;8.404;2023-02-23T06:21:49;31.70;;;16.10;;
69386;SDS011;56575;48.942;8.404;2023-02-23T06:24:14;32.93;;;18.47;;
69386;SDS011;56575;48.942;8.404;2023-02-23T06:26:39;33.40;;;20.70;;
69386;SDS011;56575;48.942;8.404;2023-02-23T06:29:05;31.93;;;18.93;;
69386;SDS011;56575;48.942;8.404;2023-02-23T06:31:30;30.27;;;17.73;;
69386;SDS011;56575;48.942;8.404;2023-02-23T06:33:55;30.10;;;16.13;;
69386;SDS011;56575;48.942;8.404;2023-02-23T06:36:20;26.87;;;14.77;;
69386;SDS011;56575;48.942;8.404;2023-02-23T06:38:46;30.27;;;15.53;;
69386;SDS011;56575;48.942;8.404;2023-02-23T06:41:11;29.93;;;15.40;;
69386;SDS011;56575;48.942;8.404;2023-02-23T06:43:36;32.17;;;14.83;;
69386;SDS011;56575;48.942;8.404;2023-02-23T06:46:02;32.23;;;16.03;;
69386;SDS011;56575;48.942;8.404;2023-02-23T06:48:27;28.87;;;14.60;;
69386;SDS011;56575;48.942;8.404;2023-02-23T06:50:52;27.90;;;14.97;;
69386;SDS011;56575;48.942;8.404;2023-02-23T06:53:18;29.77;;;15.63;;
69386;SDS011;56575;48.942;8.404;2023-02-23T06:55:44;28.20;;;15.10;;
69386;SDS011;56575;48.942;8.404;2023-02-23T06:58:09;30.70;;;15.20;;
69386;SDS011;56575;48.942;8.404;2023-02-23T07:00:34;31.07;;;15.40;;
69386;SDS011;56575;48.942;8.404;2023-02-23T07:03:00;31.90;;;16.40;;
69386;SDS011;56575;48.942;8.404;2023-02-23T07:05:25;35.07;;;17.60;;
69386;SDS011;56575;48.942;8.404;2023-02-23T07:07:50;34.00;;;18.00;;
69386;SDS011;56575;48.942;8.404;2023-02-23T07:10:16;41.47;;;21.63;;
69386;SDS011;56575;48.942;8.404;2023-02-23T07:12:41;39.50;;;21.35;;
69386;SDS011;56575;48.942;8.404;2023-02-23T07:15:07;48.03;;;29.53;;
69386;SDS011;56575;48.942;8.404;2023-02-23T07:17:32;50.77;;;31.97;;
69386;SDS011;56575;48.942;8.404;2023-02-23T07:19:57;50.90;;;33.37;;
69386;SDS011;56575;48.942;8.404;2023-02-23T07:22:23;51.27;;;32.73;;
69386;SDS011;56575;48.942;8.404;2023-02-23T07:24:51;50.38;;;30.17;;
69386;SDS011;56575;48.942;8.404;2023-02-23T07:27:16;44.37;;;27.60;;
69386;SDS011;56575;48.942;8.404;2023-02-23T07:29:42;40.23;;;24.53;;
69386;SDS011;56575;48.942;8.404;2023-02-23T07:32:07;43.70;;;24.83;;
69386;SDS011;56575;48.942;8.404;2023-02-23T07:34:32;40.90;;;24.47;;
69386;SDS011;56575;48.942;8.404;2023-02-23T07:36:57;41.20;;;23.63;;
69386;SDS011;56575;48.942;8.404;2023-02-23T07:39:22;38.57;;;22.17;;
69386;SDS011;56575;48.942;8.404;2023-02-23T07:41:49;35.90;;;20.90;;
69386;SDS011;56575;48.942;8.404;2023-02-23T07:44:14;35.03;;;19.33;;
69386;SDS011;56575;48.942;8.404;2023-02-23T07:46:40;37.70;;;18.43;;
69386;SDS011;56575;48.942;8.404;2023-02-23T07:49:05;33.25;;;17.42;;
69386;SDS011;56575;48.942;8.404;2023-02-23T07:51:31;29.00;;;16.30;;
69386;SDS011;56575;48.942;8.404;2023-02-23T07:54:00;30.50;;;15.70;;
69386;SDS011;56575;48.942;8.404;2023-02-23T07:56:25;29.35;;;16.90;;
69386;SDS011;56575;48.942;8.404;2023-02-23T07:58:51;27.17;;;15.23;;
69386;SDS011;56575;48.942;8.404;2023-02-23T08:01:16;28.33;;;15.17;;
69386;SDS011;56575;48.942;8.404;2023-02-23T08:03:42;34.60;;;22.90;;
69386;SDS011;56575;48.942;8.404;2023-02-23T08:06:13;32.22;;;19.15;;
69386;SDS011;56575;48.942;8.404;2023-02-23T08:08:39;30.42;;;17.80;;
69386;SDS011;56575;48.942;8.404;2023-02-23T08:11:04;27.50;;;15.70;;
69386;SDS011;56575;48.942;8.404;2023-02-23T08:13:30;27.20;;;13.63;;
69386;SDS011;56575;48.942;8.404;2023-02-23T08:15:56;27.08;;;13.80;;
69386;SDS011;56575;48.942;8.404;2023-02-23T08:18:21;25.10;;;13.57;;
69386;SDS011;56575;48.942;8.404;2023-02-23T08:20:47;26.88;;;14.20;;
69386;SDS011;56575;48.942;8.404;2023-02-23T08:23:12;26.77;;;13.63;;
69386;SDS011;56575;48.942;8.404;2023-02-23T08:25:37;28.17;;;13.87;;
69386;SDS011;56575;48.942;8.404;2023-02-23T08:28:03;27.47;;;12.97;;
69386;SDS011;56575;48.942;8.404;2023-02-23T08:30:30;27.90;;;13.18;;
69386;SDS011;56575;48.942;8.404;2023-02-23T08:32:56;26.87;;;13.73;;
69386;SDS011;56575;48.942;8.404;2023-02-23T08:35:21;27.27;;;13.97;;
69386;SDS011;56575;48.942;8.404;2023-02-23T08:37:46;31.57;;;14.30;;
69386;SDS011;56575;48.942;8.404;2023-02-23T08:40:12;30.63;;;14.83;;
69386;SDS011;56575;48.942;8.404;2023-02-23T08:42:40;33.83;;;14.40;;
69386;SDS011;56575;48.942;8.404;2023-02-23T08:45:05;32.22;;;14.35;;
69386;SDS011;56575;48.942;8.404;2023-02-23T08:47:30;30.83;;;15.17;;
69386;SDS011;56575;48.942;8.404;2023-02-23T08:49:58;27.20;;;13.88;;
69386;SDS011;56575;48.942;8.404;2023-02-23T08:52:23;30.53;;;14.57;;
69386;SDS011;56575;48.942;8.404;2023-02-23T08:54:49;28.70;;;14.63;;
69386;SDS011;56575;48.942;8.404;2023-02-23T08:57:14;26.50;;;13.90;;
69386;SDS011;56575;48.942;8.404;2023-02-23T08:59:39;30.83;;;13.77;;
69386;SDS011;56575;48.942;8.404;2023-02-23T09:02:05;26.90;;;13.15;;
69386;SDS011;56575;48.942;8.404;2023-02-23T09:04:32;26.33;;;13.13;;
69386;SDS011;56575;48.942;8.404;2023-02-23T09:06:59;27.02;;;13.57;;
69386;SDS011;56575;48.942;8.404;2023-02-23T09:09:24;24.10;;;12.63;;
69386;SDS011;56575;48.942;8.404;2023-02-23T09:11:50;25.40;;;12.87;;
69386;SDS011;56575;48.942;8.404;2023-02-23T09:14:15;24.87;;;12.50;;
69386;SDS011;56575;48.942;8.404;2023-02-23T09:16:40;31.00;;;13.03;;
69386;SDS011;56575;48.942;8.404;2023-02-23T09:19:09;21.70;;;11.60;;
69386;SDS011;56575;48.942;8.404;2023-02-23T09:21:34;23.87;;;11.97;;
69386;SDS011;56575;48.942;8.404;2023-02-23T09:23:59;22.50;;;12.00;;
69386;SDS011;56575;48.942;8.404;2023-02-23T09:26:25;23.35;;;12.90;;
69386;SDS011;56575;48.942;8.404;2023-02-23T09:28:52;22.73;;;12.18;;
69386;SDS011;56575;48.942;8.404;2023-02-23T09:31:20;23.30;;;12.13;;
69386;SDS011;56575;48.942;8.404;2023-02-23T09:33:45;24.33;;;11.70;;
69386;SDS011;56575;48.942;8.404;2023-02-23T09:36:14;23.98;;;12.25;;
69386;SDS011;56575;48.942;8.404;2023-02-23T09:38:40;22.33;;;12.57;;
69386;SDS011;56575;48.942;8.404;2023-02-23T09:41:31;23.88;;;13.60;;
69386;SDS011;56575;48.942;8.404;2023-02-23T09:49:04;24.90;;;13.37;;
69386;SDS011;56575;48.942;8.404;2023-02-23T09:51:35;27.25;;;11.93;;
69386;SDS011;56575;48.942;8.404;2023-02-23T09:54:01;21.70;;;11.80;;
69386;SDS011;56575;48.942;8.404;2023-02-23T09:56:37;22.65;;;11.93;;
69386;SDS011;56575;48.942;8.404;2023-02-23T09:59:06;21.27;;;10.57;;
69386;SDS011;56575;48.942;8.404;2023-02-23T10:06:40;18.17;;;9.45;;
69386;SDS011;56575;48.942;8.404;2023-02-23T10:14:20;22.83;;;11.10;;
69386;SDS011;56575;48.942;8.404;2023-02-23T10:16:56;21.67;;;11.20;;
69386;SDS011;56575;48.942;8.404;2023-02-23T10:22:02;23.45;;;10.93;;
69386;SDS011;56575;48.942;8.404;2023-02-23T10:24:29;20.35;;;11.45;;
69386;SDS011;56575;48.942;8.404;2023-02-23T10:26:59;21.40;;;11.25;;
69386;SDS011;56575;48.942;8.404;2023-02-23T10:29:30;20.40;;;11.10;;
69386;SDS011;56575;48.942;8.404;2023-02-23T10:31:58;21.63;;;11.45;;
69386;SDS011;56575;48.942;8.404;2023-02-23T10:34:25;23.23;;;11.63;;
69386;SDS011;56575;48.942;8.404;2023-02-23T10:36:57;20.30;;;11.18;;
69386;SDS011;56575;48.942;8.404;2023-02-23T10:39:24;21.83;;;11.35;;
69386;SDS011;56575;48.942;8.404;2023-02-23T10:41:49;20.27;;;10.73;;
69386;SDS011;56575;48.942;8.404;2023-02-23T10:44:18;22.60;;;10.20;;
69386;SDS011;56575;48.942;8.404;2023-02-23T10:46:45;18.77;;;10.27;;
69386;SDS011;56575;48.942;8.404;2023-02-23T10:49:17;21.13;;;10.50;;
69386;SDS011;56575;48.942;8.404;2023-02-23T10:51:43;20.05;;;10.27;;
69386;SDS011;56575;48.942;8.404;2023-02-23T10:56:53;22.40;;;10.83;;
69386;SDS011;56575;48.942;8.404;2023-02-23T10:59:18;22.58;;;10.77;;
69386;SDS011;56575;48.942;8.404;2023-02-23T11:01:45;20.50;;;10.77;;
69386;SDS011;56575;48.942;8.404;2023-02-23T11:04:20;22.27;;;11.80;;
69386;SDS011;56575;48.942;8.404;2023-02-23T11:06:46;24.58;;;12.25;;
69386;SDS011;56575;48.942;8.404;2023-02-23T11:11:58;20.02;;;10.40;;
69386;SDS011;56575;48.942;8.404;2023-02-23T11:14:24;18.83;;;10.70;;
69386;SDS011;56575;48.942;8.404;2023-02-23T11:16:52;20.97;;;10.03;;
69386;SDS011;56575;48.942;8.404;2023-02-23T11:19:32;21.52;;;11.18;;
69386;SDS011;56575;48.942;8.404;2023-02-23T11:21:57;20.63;;;10.68;;
69386;SDS011;56575;48.942;8.404;2023-02-23T11:24:27;22.30;;;10.80;;
69386;SDS011;56575;48.942;8.404;2023-02-23T11:26:55;19.33;;;9.98;;
69386;SDS011;56575;48.942;8.404;2023-02-23T11:29:40;20.25;;;10.13;;
69386;SDS011;56575;48.942;8.404;2023-02-23T11:32:17;23.98;;;11.05;;
69386;SDS011;56575;48.942;8.404;2023-02-23T11:34:43;21.43;;;10.17;;
69386;SDS011;56575;48.942;8.404;2023-02-23T11:39:49;23.75;;;10.57;;
69386;SDS011;56575;48.942;8.404;2023-02-23T11:42:17;21.13;;;10.18;;
69386;SDS011;56575;48.942;8.404;2023-02-23T11:44:48;20.15;;;9.95;;
69386;SDS011;56575;48.942;8.404;2023-02-23T11:47:15;20.10;;;10.20;;
69386;SDS011;56575;48.942;8.404;2023-02-23T11:49:43;20.27;;;10.52;;
69386;SDS011;56575;48.942;8.404;2023-02-23T11:52:15;19.90;;;9.95;;
69386;SDS011;56575;48.942;8.404;2023-02-23T11:54:47;19.33;;;9.45;;
69386;SDS011;56575;48.942;8.404;2023-02-23T11:57:28;19.37;;;9.43;;
69386;SDS011;56575;48.942;8.404;2023-02-23T11:59:54;18.45;;;10.07;;
69386;SDS011;56575;48.942;8.404;2023-02-23T12:04:47;18.52;;;9.85;;
69386;SDS011;56575;48.942;8.404;2023-02-23T12:07:24;19.83;;;10.55;;
69386;SDS011;56575;48.942;8.404;2023-02-23T12:09:55;19.50;;;10.00;;
69386;SDS011;56575;48.942;8.404;2023-02-23T12:12:21;23.17;;;10.00;;
69386;SDS011;56575;48.942;8.404;2023-02-23T12:14:49;19.73;;;9.75;;
69386;SDS011;56575;48.942;8.404;2023-02-23T12:19:46;18.48;;;9.93;;
69386;SDS011;56575;48.942;8.404;2023-02-23T12:22:14;22.17;;;10.33;;
69386;SDS011;56575;48.942;8.404;2023-02-23T12:27:28;21.38;;;10.07;;
69386;SDS011;56575;48.942;8.404;2023-02-23T12:32:21;21.73;;;10.43;;
69386;SDS011;56575;48.942;8.404;2023-02-23T12:35:00;23.90;;;9.98;;
69386;SDS011;56575;48.942;8.404;2023-02-23T12:37:33;18.48;;;10.07;;
69386;SDS011;56575;48.942;8.404;2023-02-23T12:45:58;20.38;;;10.35;;
69386;SDS011;56575;48.942;8.404;2023-02-23T12:48:01;23.02;;;10.30;;
69386;SDS011;56575;48.942;8.404;2023-02-23T12:50:29;18.60;;;9.48;;
69386;SDS011;56575;48.942;8.404;2023-02-23T12:55:47;19.17;;;9.87;;
69386;SDS011;56575;48.942;8.404;2023-02-23T13:11:05;18.33;;;9.93;;
69386;SDS011;56575;48.942;8.404;2023-02-23T13:13:46;19.65;;;9.30;;
69386;SDS011;56575;48.942;8.404;2023-02-23T13:16:16;20.52;;;9.32;;
69386;SDS011;56575;48.942;8.404;2023-02-23T13:18:47;20.35;;;9.05;;
69386;SDS011;56575;48.942;8.404;2023-02-23T13:21:22;18.27;;;8.75;;
69386;SDS011;56575;48.942;8.404;2023-02-23T13:28:52;17.55;;;9.07;;
69386;SDS011;56575;48.942;8.404;2023-02-23T13:33:45;21.37;;;9.37;;
69386;SDS011;56575;48.942;8.404;2023-02-23T13:36:11;16.33;;;8.88;;
69386;SDS011;56575;48.942;8.404;2023-02-23T13:38:42;17.13;;;9.40;;
69386;SDS011;56575;48.942;8.404;2023-02-23T13:41:19;18.52;;;9.57;;
69386;SDS011;56575;48.942;8.404;2023-02-23T13:43:51;19.15;;;9.00;;
69386;SDS011;56575;48.942;8.404;2023-02-23T13:48:53;17.60;;;9.17;;
69386;SDS011;56575;48.942;8.404;2023-02-23T13:51:31;20.70;;;9.45;;
69386;SDS011;56575;48.942;8.404;2023-02-23T13:54:00;17.13;;;9.27;;
69386;SDS011;56575;48.942;8.404;2023-02-23T13:56:26;19.97;;;9.77;;
69386;SDS011;56575;48.942;8.404;2023-02-23T13:59:06;16.67;;;8.32;;
69386;SDS011;56575;48.942;8.404;2023-02-23T14:01:39;17.55;;;7.93;;
69386;SDS011;56575;48.942;8.404;2023-02-23T14:04:12;17.30;;;7.70;;
69386;SDS011;56575;48.942;8.404;2023-02-23T14:06:39;16.98;;;8.30;;
69386;SDS011;56575;48.942;8.404;2023-02-23T14:09:20;15.00;;;8.30;;
69386;SDS011;56575;48.942;8.404;2023-02-23T14:11:49;18.33;;;8.75;;
69386;SDS011;56575;48.942;8.404;2023-02-23T14:15:01;16.20;;;8.65;;
69386;SDS011;56575;48.942;8.404;2023-02-23T14:22:22;15.17;;;8.07;;
69386;SDS011;56575;48.942;8.404;2023-02-23T14:25:42;13.93;;;7.30;;
69386;SDS011;56575;48.942;8.404;2023-02-23T14:27:34;14.60;;;7.10;;
69386;SDS011;56575;48.942;8.404;2023-02-23T14:32:39;12.85;;;5.93;;
69386;SDS011;56575;48.942;8.404;2023-02-23T14:35:08;11.48;;;5.93;;
69386;SDS011;56575;48.942;8.404;2023-02-23T14:37:54;9.40;;;5.10;;
69386;SDS011;56575;48.942;8.404;2023-02-23T14:40:22;11.20;;;4.90;;
69386;SDS011;56575;48.942;8.404;2023-02-23T14:42:50;10.68;;;5.18;;
69386;SDS011;56575;48.942;8.404;2023-02-23T14:45:20;11.00;;;4.88;;
69386;SDS011;56575;48.942;8.404;2023-02-23T14:47:52;10.95;;;5.03;;
69386;SDS011;56575;48.942;8.404;2023-02-23T14:50:29;11.50;;;4.90;;
69386;SDS011;56575;48.942;8.404;2023-02-23T14:52:55;10.07;;;4.20;;
69386;SDS011;56575;48.942;8.404;2023-02-23T14:55:28;11.27;;;5.20;;
69386;SDS011;56575;48.942;8.404;2023-02-23T14:57:53;10.40;;;4.85;;
69386;SDS011;56575;48.942;8.404;2023-02-23T15:00:23;11.20;;;4.90;;
69386;SDS011;56575;48.942;8.404;2023-02-23T15:03:07;11.80;;;5.13;;
69386;SDS011;56575;48.942;8.404;2023-02-23T15:05:42;9.02;;;4.70;;
69386;SDS011;56575;48.942;8.404;2023-02-23T15:08:10;9.43;;;4.70;;
69386;SDS011;56575;48.942;8.404;2023-02-23T15:10:38;10.60;;;4.88;;
69386;SDS011;56575;48.942;8.404;2023-02-23T15:13:46;8.70;;;4.68;;
69386;SDS011;56575;48.942;8.404;2023-02-23T15:15:52;12.45;;;5.05;;
69386;SDS011;56575;48.942;8.404;2023-02-23T15:18:20;9.38;;;4.30;;
69386;SDS011;56575;48.942;8.404;2023-02-23T15:20:46;10.23;;;4.47;;
69386;SDS011;56575;48.942;8.404;2023-02-23T15:23:12;11.85;;;4.78;;
69386;SDS011;56575;48.942;8.404;2023-02-23T15:25:39;10.98;;;4.57;;
69386;SDS011;56575;48.942;8.404;2023-02-23T15:28:19;12.20;;;4.60;;
69386;SDS011;56575;48.942;8.404;2023-02-23T15:30:45;11.27;;;4.40;;
69386;SDS011;56575;48.942;8.404;2023-02-23T15:33:12;11.73;;;5.15;;
69386;SDS011;56575;48.942;8.404;2023-02-23T15:35:42;10.13;;;4.70;;
69386;SDS011;56575;48.942;8.404;2023-02-23T15:38:10;9.60;;;4.80;;
69386;SDS011;56575;48.942;8.404;2023-02-23T15:40:39;12.32;;;4.65;;
69386;SDS011;56575;48.942;8.404;2023-02-23T15:43:04;11.07;;;5.03;;
69386;SDS011;56575;48.942;8.404;2023-02-23T15:45:39;10.00;;;5.65;;
69386;SDS011;56575;48.942;8.404;2023-02-23T15:48:08;10.38;;;5.03;;
69386;SDS011;56575;48.942;8.404;2023-02-23T15:50:41;11.65;;;4.95;;
69386;SDS011;56575;48.942;8.404;2023-02-23T15:53:08;11.05;;;5.68;;
69386;SDS011;56575;48.942;8.404;2023-02-23T15:55:38;10.43;;;5.33;;
69386;SDS011;56575;48.942;8.404;2023-02-23T15:58:25;10.65;;;5.68;;
69386;SDS011;56575;48.942;8.404;2023-02-23T16:00:55;11.80;;;5.22;;
69386;SDS011;56575;48.942;8.404;2023-02-23T16:03:22;11.57;;;6.15;;
69386;SDS011;56575;48.942;8.404;2023-02-23T16:05:54;14.73;;;5.70;;
69386;SDS011;56575;48.942;8.404;2023-02-23T16:08:23;12.43;;;5.90;;
69386;SDS011;56575;48.942;8.404;2023-02-23T16:10:49;11.43;;;5.65;;
69386;SDS011;56575;48.942;8.404;2023-02-23T16:13:17;11.63;;;5.97;;
69386;SDS011;56575;48.942;8.404;2023-02-23T16:15:43;11.02;;;5.65;;
69386;SDS011;56575;48.942;8.404;2023-02-23T16:18:11;12.43;;;6.13;;
69386;SDS011;56575;48.942;8.404;2023-02-23T16:20:40;12.52;;;5.93;;
69386;SDS011;56575;48.942;8.404;2023-02-23T16:23:09;12.73;;;6.50;;
69386;SDS011;56575;48.942;8.404;2023-02-23T16:25:39;13.95;;;7.10;;
69386;SDS011;56575;48.942;8.404;2023-02-23T16:28:11;13.80;;;6.83;;
69386;SDS011;56575;48.942;8.404;2023-02-23T16:35:52;16.35;;;9.00;;
69386;SDS011;56575;48.942;8.404;2023-02-23T16:40:44;18.07;;;8.50;;
69386;SDS011;56575;48.942;8.404;2023-02-23T16:43:12;17.00;;;8.75;;
69386;SDS011;56575;48.942;8.404;2023-02-23T16:45:38;17.38;;;8.23;;